• Join FlightAware (Why Join?)
  • Login
  • US Flag 
10:36PM EST


 

Airport Tracker/Info


-or-


 

Live Flight TrackerFlight Track Log ✈ AXM5247 ✈ 23-Jul-2013 ✈ WBGB / BTU - WMKK / KUL

Flight Track Log - Related Links

Times and Time Zones

All times are in EDT time to prevent confusion due to time zone crossing. See the AXM5247 flight status page for this flight to view local times or setup timezone preferences in your user account.

Time Position Orientation Groundspeed Altitude Reporting Facility
EDT Latitude Longitude Course Direction KTS MPH feet Rate Location/Type
09:42PM 2.8760 110.7490 260° West 499 574 35,200  Level FlightAware
09:43PM 2.8610 110.6550 261° West 493 567 36,200 960 Climbing FlightAware
09:44PM 2.8430 110.5480 260° West 490 564 36,700 300 Climbing FlightAware
09:44PM 2.8260 110.4550 260° West 490 564 36,700 900 Level FlightAware
09:45PM 2.8120 110.3550 262° West 481 554 38,000 1,140 Climbing FlightAware
09:46PM 2.8000 110.2810 261° West 482 555 38,000  Level FlightAware
09:46PM 2.7820 110.1690 261° West 482 555 38,000  Level FlightAware
09:47PM 2.7650 110.0660 261° West 483 556 38,000  Level FlightAware
09:48PM 2.7490 109.9670 261° West 483 556 38,000  Level FlightAware
09:49PM 2.7330 109.8730 260° West 483 556 38,000  Level FlightAware
09:49PM 2.7200 109.7920 261° West 483 556 38,000  Level FlightAware
09:50PM 2.7070 109.7100 261° West 484 557 38,000  Level FlightAware
09:51PM 2.6890 109.6050 260° West 484 557 38,000  Level FlightAware
09:51PM 2.6730 109.5020 261° West 484 557 38,000  Level FlightAware
09:52PM 2.6610 109.4310 260° West 485 558 38,000  Level FlightAware
09:53PM 2.6440 109.3300 260° West 486 559 38,000  Level FlightAware
09:53PM 2.6300 109.2440 261° West 486 559 38,000  Level FlightAware
09:54PM 2.6180 109.1740 260° West 486 559 38,000  Level FlightAware
09:55PM 2.6060 109.1060 260° West 486 559 38,000  Level FlightAware
09:55PM 2.5900 109.0160 260° West 486 559 38,000  Level FlightAware
09:56PM 2.5590 108.8720 258° West 486 559 38,000  Level FlightAware
09:57PM 2.5390 108.8040 254° West 486 559 38,000  Level FlightAware
09:58PM 2.5140 108.7160 254° West 486 559 38,000  Level FlightAware
09:58PM 2.4950 108.6500 254° West 486 559 38,000  Level FlightAware
09:59PM 2.4130 108.4980 242° Southwest 484 557 38,000  Level FlightAware
09:59PM 2.4000 108.4660 248° West 483 556 38,000  Level FlightAware
10:01PM 2.3480 108.3310 249° West 483 556 38,000  Level FlightAware
10:01PM 2.3080 108.2270 249° West 483 556 38,000  Level FlightAware
10:02PM 2.2840 108.1630 249° West 483 556 38,000  Level FlightAware
10:03PM 2.2430 108.0570 249° West 483 556 38,000  Level FlightAware
10:04PM 2.2190 107.9930 249° West 483 556 38,000  Level FlightAware
10:04PM 2.1860 107.9080 249° West 483 556 38,000  Level FlightAware
10:05PM 2.1610 107.8440 249° West 483 556 38,000  Level FlightAware
10:06PM 2.1290 107.7590 249° West 483 556 38,000  Level FlightAware
10:06PM 2.1040 107.6950 249° West 483 556 38,000  Level FlightAware
10:07PM 2.0800 107.6310 249° West 483 556 38,000  Level FlightAware
10:08PM 2.0390 107.5240 249° West 483 556 38,000  Level FlightAware
10:09PM 2.3120 107.3030 321° Northwest 461 531 38,000  Level FlightAware
10:09PM 2.3380 107.2110 286° West 463 533 38,000  Level FlightAware
10:10PM 2.3600 107.1270 285° West 463 533 38,000  Level FlightAware
10:11PM 2.3770 107.0640 285° West 463 533 38,000  Level FlightAware
10:12PM 2.4000 106.9790 285° West 463 533 38,000  Level FlightAware
10:12PM 2.4170 106.9160 285° West 463 533 38,000  Level FlightAware
10:13PM 2.4610 106.7640 286° West 465 535 38,000  Level FlightAware
10:14PM 2.4840 106.6840 286° West 466 536 38,000  Level FlightAware
10:14PM 2.5080 106.5960 285° West 466 536 38,000  Level FlightAware
10:15PM 2.5280 106.5240 286° West 466 536 38,000  Level FlightAware
10:16PM 2.5450 106.4590 285° West 466 536 38,000  Level FlightAware
10:16PM 2.5680 106.3740 285° West 466 536 38,000  Level FlightAware
10:17PM 2.5860 106.3080 285° West 466 536 38,000  Level FlightAware
10:18PM 2.6220 106.1820 286° West 467 537 38,000  Level FlightAware
10:18PM 2.6460 106.0970 286° West 466 536 38,000  Level FlightAware
10:19PM 2.6680 106.0180 286° West 466 536 38,000  Level FlightAware
10:20PM 2.6860 105.9500 285° West 466 536 38,000  Level FlightAware
10:20PM 2.7030 105.8860 285° West 466 536 38,000  Level FlightAware
10:21PM 2.7380 105.7630 286° West 456 525 38,000  Level FlightAware
10:22PM 2.7600 105.6830 285° West 454 522 38,000  Level FlightAware
10:23PM 2.7870 105.5820 285° West 453 521 38,000  Level FlightAware
10:23PM 2.8040 105.5200 285° West 453 521 38,000  Level FlightAware
10:24PM 2.8330 105.4190 286° West 455 524 38,000  Level FlightAware
10:25PM 2.8610 105.3160 285° West 455 524 38,000  Level FlightAware
10:26PM 2.8830 105.2330 285° West 455 524 38,000  Level FlightAware
10:26PM 2.9060 105.1520 286° West 453 521 38,000  Level FlightAware
10:27PM 2.9250 105.0820 285° West 453 521 38,000  Level FlightAware
10:28PM 2.9470 104.9990 285° West 453 521 38,000  Level FlightAware
10:28PM 2.9640 104.9370 285° West 453 521 38,000  Level FlightAware
10:29PM 2.9860 104.8520 285° West 453 521 38,000  Level FlightAware
10:30PM 3.0030 104.7900 285° West 453 521 38,000  Level FlightAware
10:30PM 3.0490 104.6320 286° West 455 524 38,000  Level FlightAware
10:31PM 3.0790 104.5240 286° West 454 522 38,000  Level FlightAware
10:32PM 3.1120 104.4050 286° West 452 520 38,000  Level FlightAware
10:33PM 3.1270 104.3500 285° West 453 521 38,000  Level FlightAware
10:34PM 3.1520 104.2600 286° West 455 524 38,000  Level FlightAware
10:34PM 3.1690 104.1790 282° West 461 531 38,000  Level FlightAware
10:35PM 3.1730 104.0300 272° West 467 537 38,000  Level FlightAware
10:36PM 3.1700 103.9450 268° West 467 537 38,000  Level FlightAware
10:37PM 3.1660 103.8360 268° West 467 537 38,000  Level FlightAware
10:37PM 3.1640 103.7790 268° West 467 537 38,000  Level FlightAware
10:38PM 3.1610 103.6880 268° West 469 540 38,000 -120 Level FlightAware
10:39PM 3.1560 103.5580 268° West 469 540 37,800 -1,200 Descending FlightAware
10:40PM 3.1490 103.4790 265° West 473 544 36,200 -2,040 Descending FlightAware
10:40PM 3.1330 103.3620 262° West 485 558 35,000 -1,260 Descending FlightAware
10:41PM 3.1170 103.2550 261° West 480 552 34,000 -1,860 Descending FlightAware
10:42PM 3.0890 103.1800 250° West 485 558 32,100 -3,540 Descending FlightAware
10:43PM 3.0550 103.0990 247° West 493 567 29,800 -3,420 Descending FlightAware
10:43PM 3.0190 103.0130 247° West 494 568 27,600 -3,240 Descending FlightAware
10:44PM 2.9710 102.8980 247° West 477 549 25,000 -2,880 Descending FlightAware
10:45PM 2.9380 102.8190 247° West 457 526 23,500 -2,280 Descending FlightAware
10:45PM 2.9080 102.7490 247° West 438 504 22,000 -2,520 Descending FlightAware
10:46PM 2.8600 102.6310 248° West 408 470 19,300 -2,940 Descending FlightAware
10:47PM 2.8410 102.5830 248° West 389 448 17,600 -3,720 Descending FlightAware
10:48PM 2.8100 102.5060 248° West 372 428 14,700 -3,300 Descending FlightAware
10:48PM 2.7860 102.4430 249° West 364 419 13,000 -2,340 Descending FlightAware
10:49PM 2.7640 102.3890 248° West 353 406 11,800 -1,560 Descending FlightAware
10:50PM 2.7410 102.3300 249° West 322 371 11,100 -840 Descending FlightAware
10:50PM 2.7190 102.2730 249° West 286 329 10,600 -900 Descending FlightAware
10:51PM 2.6990 102.2230 248° West 279 321 9,900 -900 Descending FlightAware
10:51PM 2.6950 102.2130 248° West 279 321 9,900 -1,080 Level FlightAware
10:52PM 2.6800 102.1740 249° West 272 313 9,100 -1,200 Descending FlightAware
10:52PM 2.6700 102.1480 249° West 270 311 8,700 -900 Descending FlightAware
10:53PM 2.6560 102.1130 248° West 273 314 8,300 -1,200 Descending FlightAware
10:53PM 2.6440 102.0830 248° West 266 306 7,600 -1,680 Descending FlightAware
10:53PM 2.6360 102.0610 250° West 264 304 7,100 -1,500 Descending FlightAware
10:54PM 2.6280 102.0410 248° West 262 302 6,700 -1,380 Descending FlightAware
10:54PM 2.6160 102.0120 248° West 258 297 6,100 -1,020 Descending FlightAware
10:55PM 2.6050 101.9830 249° West 242 278 5,800 -360 Descending FlightAware
10:55PM 2.5950 101.9590 247° West 242 278 5,800 -1,380 Level FlightAware
10:56PM 2.5910 101.9110 265° West 229 264 4,300 -1,440 Descending FlightAware
10:56PM 2.5860 101.8880 258° West 229 264 4,300 -1,080 Level FlightAware
10:57PM 2.5760 101.8270 261° West 227 261 2,900 -1,200 Descending FlightAware
10:58PM 2.5970 101.7980 306° West 212 244 2,600 -420 Descending FlightAware
10:58PM 2.6030 101.7920 315° West 203 234 2,600 -720 Level FlightAware
10:58PM 2.6210 101.7800 326° Northwest 191 220 2,200 -900 Descending FlightAware
10:59PM 2.6420 101.7660 326° Northwest 165 190 1,800 -840 Descending FlightAware
10:59PM 2.6510 101.7600 326° Northwest 158 182 1,600 -420 Descending FlightAware
11:00PM 2.6740 101.7440 325° Northwest 155 178 1,400 -300 Descending FlightAware
11:02PM 2.7456 101.7099 335° Northwest  Level Estimated
11:03PM 2.7456 101.7099 236° Southwest  Level Estimated
11:04PM 2.7456 101.7099 236° Southwest  Level Estimated
11:05PM 2.7456 101.7099 236° Southwest  Level Estimated
11:06PM 2.7456 101.7099 236° Southwest  Level Estimated
11:07PM 2.7456 101.7099 236° Southwest  Level Estimated
11:08PM 2.7456 101.7099 236° Southwest  Level Estimated